sensor_id;sensor_type;location;lat;lon;timestamp;P1;durP1;ratioP1;P2;durP2;ratioP2
47958;SDS011;33718;50.910;-1.514;2024-02-26T00:00:51;15.98;;;8.55;;
47958;SDS011;33718;50.910;-1.514;2024-02-26T00:02:53;12.85;;;7.80;;
47958;SDS011;33718;50.910;-1.514;2024-02-26T00:04:54;18.42;;;8.80;;
47958;SDS011;33718;50.910;-1.514;2024-02-26T00:06:56;20.95;;;8.73;;
47958;SDS011;33718;50.910;-1.514;2024-02-26T00:08:59;21.00;;;8.65;;
47958;SDS011;33718;50.910;-1.514;2024-02-26T00:11:20;17.17;;;8.85;;
47958;SDS011;33718;50.910;-1.514;2024-02-26T00:13:22;14.50;;;8.20;;
47958;SDS011;33718;50.910;-1.514;2024-02-26T00:15:42;17.23;;;9.10;;
47958;SDS011;33718;50.910;-1.514;2024-02-26T00:18:02;22.45;;;9.05;;
47958;SDS011;33718;50.910;-1.514;2024-02-26T00:20:05;19.83;;;9.10;;
47958;SDS011;33718;50.910;-1.514;2024-02-26T00:22:10;20.85;;;9.32;;
47958;SDS011;33718;50.910;-1.514;2024-02-26T00:24:31;15.32;;;8.80;;
47958;SDS011;33718;50.910;-1.514;2024-02-26T00:26:32;20.85;;;9.50;;
47958;SDS011;33718;50.910;-1.514;2024-02-26T00:28:34;15.07;;;8.50;;
47958;SDS011;33718;50.910;-1.514;2024-02-26T00:30:36;21.23;;;9.10;;
47958;SDS011;33718;50.910;-1.514;2024-02-26T00:32:37;25.90;;;10.73;;
47958;SDS011;33718;50.910;-1.514;2024-02-26T00:34:39;19.00;;;9.98;;
47958;SDS011;33718;50.910;-1.514;2024-02-26T00:36:41;17.63;;;9.60;;
47958;SDS011;33718;50.910;-1.514;2024-02-26T00:38:42;17.63;;;9.20;;
47958;SDS011;33718;50.910;-1.514;2024-02-26T00:40:46;19.20;;;9.63;;
47958;SDS011;33718;50.910;-1.514;2024-02-26T00:42:48;28.10;;;10.35;;
47958;SDS011;33718;50.910;-1.514;2024-02-26T00:44:49;17.80;;;8.82;;
47958;SDS011;33718;50.910;-1.514;2024-02-26T00:46:51;29.38;;;10.32;;
47958;SDS011;33718;50.910;-1.514;2024-02-26T00:48:53;28.10;;;9.40;;
47958;SDS011;33718;50.910;-1.514;2024-02-26T00:50:54;24.65;;;9.63;;
47958;SDS011;33718;50.910;-1.514;2024-02-26T00:52:56;21.63;;;9.45;;
47958;SDS011;33718;50.910;-1.514;2024-02-26T00:54:58;24.60;;;8.95;;
47958;SDS011;33718;50.910;-1.514;2024-02-26T00:56:59;22.05;;;10.82;;
47958;SDS011;33718;50.910;-1.514;2024-02-26T00:59:01;22.55;;;9.15;;
47958;SDS011;33718;50.910;-1.514;2024-02-26T01:01:02;28.38;;;10.20;;
47958;SDS011;33718;50.910;-1.514;2024-02-26T01:03:04;19.30;;;9.30;;
47958;SDS011;33718;50.910;-1.514;2024-02-26T01:05:06;27.45;;;9.75;;
47958;SDS011;33718;50.910;-1.514;2024-02-26T01:07:08;20.75;;;9.70;;
47958;SDS011;33718;50.910;-1.514;2024-02-26T01:09:10;22.70;;;10.20;;
47958;SDS011;33718;50.910;-1.514;2024-02-26T01:11:12;23.35;;;9.90;;
47958;SDS011;33718;50.910;-1.514;2024-02-26T01:13:32;23.30;;;9.32;;
47958;SDS011;33718;50.910;-1.514;2024-02-26T01:15:33;23.90;;;9.65;;
47958;SDS011;33718;50.910;-1.514;2024-02-26T01:17:35;27.90;;;9.63;;
47958;SDS011;33718;50.910;-1.514;2024-02-26T01:19:37;19.45;;;9.55;;
47958;SDS011;33718;50.910;-1.514;2024-02-26T01:21:38;29.65;;;10.43;;
47958;SDS011;33718;50.910;-1.514;2024-02-26T01:23:40;27.65;;;10.45;;
47958;SDS011;33718;50.910;-1.514;2024-02-26T01:26:00;25.98;;;10.25;;
47958;SDS011;33718;50.910;-1.514;2024-02-26T01:28:02;21.85;;;9.85;;
47958;SDS011;33718;50.910;-1.514;2024-02-26T01:30:04;22.48;;;9.63;;
47958;SDS011;33718;50.910;-1.514;2024-02-26T01:32:06;20.88;;;8.98;;
47958;SDS011;33718;50.910;-1.514;2024-02-26T01:34:08;26.35;;;11.65;;
47958;SDS011;33718;50.910;-1.514;2024-02-26T01:36:28;20.95;;;9.25;;
47958;SDS011;33718;50.910;-1.514;2024-02-26T01:38:30;27.33;;;9.75;;
47958;SDS011;33718;50.910;-1.514;2024-02-26T01:40:32;24.60;;;10.93;;
47958;SDS011;33718;50.910;-1.514;2024-02-26T01:42:33;21.77;;;9.95;;
47958;SDS011;33718;50.910;-1.514;2024-02-26T01:44:35;21.70;;;9.25;;
47958;SDS011;33718;50.910;-1.514;2024-02-26T01:46:37;24.73;;;10.52;;
47958;SDS011;33718;50.910;-1.514;2024-02-26T01:48:39;24.45;;;10.68;;
47958;SDS011;33718;50.910;-1.514;2024-02-26T01:50:41;21.92;;;10.07;;
47958;SDS011;33718;50.910;-1.514;2024-02-26T01:52:42;22.25;;;9.60;;
47958;SDS011;33718;50.910;-1.514;2024-02-26T01:54:44;30.33;;;11.63;;
47958;SDS011;33718;50.910;-1.514;2024-02-26T01:56:47;21.90;;;10.18;;
47958;SDS011;33718;50.910;-1.514;2024-02-26T01:58:53;22.13;;;10.02;;
47958;SDS011;33718;50.910;-1.514;2024-02-26T02:00:57;20.70;;;8.75;;
47958;SDS011;33718;50.910;-1.514;2024-02-26T02:03:02;18.83;;;11.27;;
47958;SDS011;33718;50.910;-1.514;2024-02-26T02:05:07;27.27;;;10.18;;
47958;SDS011;33718;50.910;-1.514;2024-02-26T02:07:10;25.33;;;11.07;;
47958;SDS011;33718;50.910;-1.514;2024-02-26T02:09:15;22.52;;;10.35;;
47958;SDS011;33718;50.910;-1.514;2024-02-26T02:11:19;17.98;;;9.30;;
47958;SDS011;33718;50.910;-1.514;2024-02-26T02:13:41;21.08;;;9.30;;
47958;SDS011;33718;50.910;-1.514;2024-02-26T02:15:45;19.67;;;9.60;;
47958;SDS011;33718;50.910;-1.514;2024-02-26T02:17:49;20.42;;;8.88;;
47958;SDS011;33718;50.910;-1.514;2024-02-26T02:19:53;20.55;;;9.68;;
47958;SDS011;33718;50.910;-1.514;2024-02-26T02:21:58;18.50;;;9.18;;
47958;SDS011;33718;50.910;-1.514;2024-02-26T02:24:01;15.48;;;9.55;;
47958;SDS011;33718;50.910;-1.514;2024-02-26T02:26:06;22.95;;;9.02;;
47958;SDS011;33718;50.910;-1.514;2024-02-26T02:28:10;20.10;;;8.07;;
47958;SDS011;33718;50.910;-1.514;2024-02-26T02:30:14;17.95;;;8.30;;
47958;SDS011;33718;50.910;-1.514;2024-02-26T02:32:19;15.02;;;8.73;;
47958;SDS011;33718;50.910;-1.514;2024-02-26T02:34:24;17.55;;;8.13;;
47958;SDS011;33718;50.910;-1.514;2024-02-26T02:38:30;16.30;;;7.82;;
47958;SDS011;33718;50.910;-1.514;2024-02-26T02:40:52;16.08;;;8.68;;
47958;SDS011;33718;50.910;-1.514;2024-02-26T02:42:53;17.75;;;7.65;;
47958;SDS011;33718;50.910;-1.514;2024-02-26T02:44:55;13.55;;;7.90;;
47958;SDS011;33718;50.910;-1.514;2024-02-26T02:46:57;21.02;;;8.50;;
47958;SDS011;33718;50.910;-1.514;2024-02-26T02:48:58;23.50;;;8.38;;
47958;SDS011;33718;50.910;-1.514;2024-02-26T02:51:19;14.40;;;7.95;;
47958;SDS011;33718;50.910;-1.514;2024-02-26T02:53:39;11.63;;;6.88;;
47958;SDS011;33718;50.910;-1.514;2024-02-26T02:56:00;13.07;;;7.65;;
47958;SDS011;33718;50.910;-1.514;2024-02-26T02:58:01;14.07;;;6.45;;
47958;SDS011;33718;50.910;-1.514;2024-02-26T03:00:21;13.00;;;6.28;;
47958;SDS011;33718;50.910;-1.514;2024-02-26T03:02:43;12.00;;;7.07;;
47958;SDS011;33718;50.910;-1.514;2024-02-26T03:04:46;11.82;;;7.13;;
47958;SDS011;33718;50.910;-1.514;2024-02-26T03:06:49;11.07;;;6.25;;
47958;SDS011;33718;50.910;-1.514;2024-02-26T03:08:51;14.32;;;7.60;;
47958;SDS011;33718;50.910;-1.514;2024-02-26T03:10:53;14.60;;;6.05;;
47958;SDS011;33718;50.910;-1.514;2024-02-26T03:12:55;10.60;;;6.55;;
47958;SDS011;33718;50.910;-1.514;2024-02-26T03:14:57;15.43;;;6.88;;
47958;SDS011;33718;50.910;-1.514;2024-02-26T03:16:59;13.25;;;7.10;;
47958;SDS011;33718;50.910;-1.514;2024-02-26T03:19:01;15.50;;;6.78;;
47958;SDS011;33718;50.910;-1.514;2024-02-26T03:21:03;19.40;;;5.45;;
47958;SDS011;33718;50.910;-1.514;2024-02-26T03:23:05;14.10;;;6.05;;
47958;SDS011;33718;50.910;-1.514;2024-02-26T03:25:06;9.73;;;4.93;;
47958;SDS011;33718;50.910;-1.514;2024-02-26T03:27:08;7.88;;;5.20;;
47958;SDS011;33718;50.910;-1.514;2024-02-26T03:29:11;9.75;;;5.20;;
47958;SDS011;33718;50.910;-1.514;2024-02-26T03:31:13;9.35;;;5.45;;
47958;SDS011;33718;50.910;-1.514;2024-02-26T03:33:14;10.35;;;5.03;;
47958;SDS011;33718;50.910;-1.514;2024-02-26T03:35:16;10.77;;;5.03;;
47958;SDS011;33718;50.910;-1.514;2024-02-26T03:37:18;10.50;;;4.88;;
47958;SDS011;33718;50.910;-1.514;2024-02-26T03:39:20;11.60;;;4.35;;
47958;SDS011;33718;50.910;-1.514;2024-02-26T03:41:22;14.68;;;5.07;;
47958;SDS011;33718;50.910;-1.514;2024-02-26T03:43:26;10.15;;;4.38;;
47958;SDS011;33718;50.910;-1.514;2024-02-26T03:45:27;10.30;;;4.90;;
47958;SDS011;33718;50.910;-1.514;2024-02-26T03:47:51;7.30;;;3.95;;
47958;SDS011;33718;50.910;-1.514;2024-02-26T03:49:53;8.73;;;4.20;;
47958;SDS011;33718;50.910;-1.514;2024-02-26T03:51:54;8.75;;;4.20;;
47958;SDS011;33718;50.910;-1.514;2024-02-26T03:53:57;10.35;;;3.88;;
47958;SDS011;33718;50.910;-1.514;2024-02-26T03:56:02;12.23;;;4.35;;
47958;SDS011;33718;50.910;-1.514;2024-02-26T03:58:04;8.45;;;4.20;;
47958;SDS011;33718;50.910;-1.514;2024-02-26T04:00:06;8.52;;;3.70;;
47958;SDS011;33718;50.910;-1.514;2024-02-26T04:02:08;12.40;;;4.57;;
47958;SDS011;33718;50.910;-1.514;2024-02-26T04:04:11;7.50;;;3.63;;
47958;SDS011;33718;50.910;-1.514;2024-02-26T04:06:31;10.00;;;4.22;;
47958;SDS011;33718;50.910;-1.514;2024-02-26T04:08:33;7.32;;;4.00;;
47958;SDS011;33718;50.910;-1.514;2024-02-26T04:10:35;3.42;;;3.13;;
47958;SDS011;33718;50.910;-1.514;2024-02-26T04:12:41;8.73;;;3.63;;
47958;SDS011;33718;50.910;-1.514;2024-02-26T04:14:43;5.55;;;3.20;;
47958;SDS011;33718;50.910;-1.514;2024-02-26T04:16:46;6.15;;;3.15;;
47958;SDS011;33718;50.910;-1.514;2024-02-26T04:18:49;4.43;;;3.10;;
47958;SDS011;33718;50.910;-1.514;2024-02-26T04:20:50;3.65;;;2.58;;
47958;SDS011;33718;50.910;-1.514;2024-02-26T04:22:53;4.00;;;2.80;;
47958;SDS011;33718;50.910;-1.514;2024-02-26T04:24:54;10.20;;;3.55;;
47958;SDS011;33718;50.910;-1.514;2024-02-26T04:26:56;6.00;;;2.92;;
47958;SDS011;33718;50.910;-1.514;2024-02-26T04:28:58;11.48;;;3.65;;
47958;SDS011;33718;50.910;-1.514;2024-02-26T04:30:59;8.32;;;3.13;;
47958;SDS011;33718;50.910;-1.514;2024-02-26T04:33:19;4.20;;;2.88;;
47958;SDS011;33718;50.910;-1.514;2024-02-26T04:35:21;8.98;;;3.22;;
47958;SDS011;33718;50.910;-1.514;2024-02-26T04:37:23;7.10;;;3.25;;
47958;SDS011;33718;50.910;-1.514;2024-02-26T04:39:24;9.00;;;3.25;;
47958;SDS011;33718;50.910;-1.514;2024-02-26T04:41:27;7.55;;;2.80;;
47958;SDS011;33718;50.910;-1.514;2024-02-26T04:43:29;7.25;;;2.53;;
47958;SDS011;33718;50.910;-1.514;2024-02-26T04:45:50;15.50;;;3.55;;
47958;SDS011;33718;50.910;-1.514;2024-02-26T04:47:54;9.33;;;3.40;;
47958;SDS011;33718;50.910;-1.514;2024-02-26T04:49:55;12.30;;;3.10;;
47958;SDS011;33718;50.910;-1.514;2024-02-26T04:51:57;8.73;;;2.58;;
47958;SDS011;33718;50.910;-1.514;2024-02-26T04:54:17;7.05;;;2.55;;
47958;SDS011;33718;50.910;-1.514;2024-02-26T04:56:38;5.45;;;2.25;;
47958;SDS011;33718;50.910;-1.514;2024-02-26T04:58:40;8.00;;;2.70;;
47958;SDS011;33718;50.910;-1.514;2024-02-26T05:00:42;3.85;;;1.98;;
47958;SDS011;33718;50.910;-1.514;2024-02-26T05:02:45;5.55;;;2.30;;
47958;SDS011;33718;50.910;-1.514;2024-02-26T05:04:49;7.43;;;2.70;;
47958;SDS011;33718;50.910;-1.514;2024-02-26T05:06:53;5.97;;;3.05;;
47958;SDS011;33718;50.910;-1.514;2024-02-26T05:09:16;4.72;;;2.58;;
47958;SDS011;33718;50.910;-1.514;2024-02-26T05:11:20;6.03;;;2.72;;
47958;SDS011;33718;50.910;-1.514;2024-02-26T05:13:24;4.32;;;2.00;;
47958;SDS011;33718;50.910;-1.514;2024-02-26T05:15:28;5.35;;;1.92;;
47958;SDS011;33718;50.910;-1.514;2024-02-26T05:17:32;7.45;;;2.20;;
47958;SDS011;33718;50.910;-1.514;2024-02-26T05:19:38;2.95;;;1.90;;
47958;SDS011;33718;50.910;-1.514;2024-02-26T05:21:42;7.70;;;2.28;;
47958;SDS011;33718;50.910;-1.514;2024-02-26T05:23:47;4.93;;;1.80;;
47958;SDS011;33718;50.910;-1.514;2024-02-26T05:26:09;4.93;;;2.05;;
47958;SDS011;33718;50.910;-1.514;2024-02-26T05:28:13;3.38;;;1.40;;
47958;SDS011;33718;50.910;-1.514;2024-02-26T05:30:19;5.78;;;1.92;;
47958;SDS011;33718;50.910;-1.514;2024-02-26T05:32:23;6.22;;;1.90;;
47958;SDS011;33718;50.910;-1.514;2024-02-26T05:34:27;6.32;;;1.88;;
47958;SDS011;33718;50.910;-1.514;2024-02-26T05:36:33;6.47;;;1.85;;
47958;SDS011;33718;50.910;-1.514;2024-02-26T05:38:38;4.78;;;1.83;;
47958;SDS011;33718;50.910;-1.514;2024-02-26T05:40:42;5.90;;;2.83;;
47958;SDS011;33718;50.910;-1.514;2024-02-26T05:42:45;6.30;;;2.58;;
47958;SDS011;33718;50.910;-1.514;2024-02-26T05:44:47;5.63;;;1.65;;
47958;SDS011;33718;50.910;-1.514;2024-02-26T05:46:49;7.28;;;1.52;;
47958;SDS011;33718;50.910;-1.514;2024-02-26T05:48:51;5.20;;;1.48;;
47958;SDS011;33718;50.910;-1.514;2024-02-26T05:50:53;4.53;;;1.63;;
47958;SDS011;33718;50.910;-1.514;2024-02-26T05:52:55;4.30;;;1.80;;
47958;SDS011;33718;50.910;-1.514;2024-02-26T05:54:57;5.72;;;1.80;;
47958;SDS011;33718;50.910;-1.514;2024-02-26T05:56:58;7.18;;;1.60;;
47958;SDS011;33718;50.910;-1.514;2024-02-26T05:59:00;15.13;;;2.22;;
47958;SDS011;33718;50.910;-1.514;2024-02-26T06:01:20;5.38;;;1.85;;
47958;SDS011;33718;50.910;-1.514;2024-02-26T06:03:22;4.30;;;1.63;;
47958;SDS011;33718;50.910;-1.514;2024-02-26T06:05:24;3.50;;;1.85;;
47958;SDS011;33718;50.910;-1.514;2024-02-26T06:07:26;6.55;;;1.30;;
47958;SDS011;33718;50.910;-1.514;2024-02-26T06:09:27;2.72;;;1.23;;
47958;SDS011;33718;50.910;-1.514;2024-02-26T06:11:48;3.92;;;1.42;;
47958;SDS011;33718;50.910;-1.514;2024-02-26T06:14:09;5.53;;;1.50;;
47958;SDS011;33718;50.910;-1.514;2024-02-26T06:16:29;8.52;;;1.20;;
47958;SDS011;33718;50.910;-1.514;2024-02-26T06:18:31;8.05;;;1.77;;
47958;SDS011;33718;50.910;-1.514;2024-02-26T06:20:33;5.05;;;1.25;;
47958;SDS011;33718;50.910;-1.514;2024-02-26T06:22:36;3.15;;;1.15;;
47958;SDS011;33718;50.910;-1.514;2024-02-26T06:24:38;9.50;;;1.17;;
47958;SDS011;33718;50.910;-1.514;2024-02-26T06:26:43;8.93;;;1.27;;
47958;SDS011;33718;50.910;-1.514;2024-02-26T06:28:45;8.43;;;1.10;;
47958;SDS011;33718;50.910;-1.514;2024-02-26T06:31:05;2.95;;;1.00;;
47958;SDS011;33718;50.910;-1.514;2024-02-26T06:33:07;2.53;;;0.80;;
47958;SDS011;33718;50.910;-1.514;2024-02-26T06:35:09;2.92;;;1.00;;
47958;SDS011;33718;50.910;-1.514;2024-02-26T06:37:13;5.53;;;0.68;;
47958;SDS011;33718;50.910;-1.514;2024-02-26T06:39:33;4.80;;;0.90;;
47958;SDS011;33718;50.910;-1.514;2024-02-26T06:41:35;6.72;;;1.05;;
47958;SDS011;33718;50.910;-1.514;2024-02-26T06:43:37;3.55;;;1.17;;
47958;SDS011;33718;50.910;-1.514;2024-02-26T06:45:39;6.75;;;1.00;;
47958;SDS011;33718;50.910;-1.514;2024-02-26T06:47:41;3.75;;;1.02;;
47958;SDS011;33718;50.910;-1.514;2024-02-26T06:49:42;5.88;;;1.30;;
47958;SDS011;33718;50.910;-1.514;2024-02-26T06:51:45;4.20;;;1.10;;
47958;SDS011;33718;50.910;-1.514;2024-02-26T06:53:47;2.63;;;0.90;;
47958;SDS011;33718;50.910;-1.514;2024-02-26T06:55:49;6.57;;;1.17;;
47958;SDS011;33718;50.910;-1.514;2024-02-26T06:57:51;7.38;;;1.33;;
47958;SDS011;33718;50.910;-1.514;2024-02-26T06:59:53;7.57;;;1.70;;
47958;SDS011;33718;50.910;-1.514;2024-02-26T07:01:55;9.07;;;1.17;;
47958;SDS011;33718;50.910;-1.514;2024-02-26T07:04:00;3.13;;;1.33;;
47958;SDS011;33718;50.910;-1.514;2024-02-26T07:06:02;1.42;;;0.80;;
47958;SDS011;33718;50.910;-1.514;2024-02-26T07:08:06;5.10;;;0.95;;
47958;SDS011;33718;50.910;-1.514;2024-02-26T07:10:12;3.53;;;0.80;;
47958;SDS011;33718;50.910;-1.514;2024-02-26T07:12:14;2.03;;;1.02;;
47958;SDS011;33718;50.910;-1.514;2024-02-26T07:14:15;4.65;;;0.73;;
47958;SDS011;33718;50.910;-1.514;2024-02-26T07:16:18;10.77;;;1.25;;
47958;SDS011;33718;50.910;-1.514;2024-02-26T07:18:19;4.97;;;0.68;;
47958;SDS011;33718;50.910;-1.514;2024-02-26T07:20:21;7.47;;;0.77;;
47958;SDS011;33718;50.910;-1.514;2024-02-26T07:22:42;2.75;;;0.57;;
47958;SDS011;33718;50.910;-1.514;2024-02-26T07:24:44;6.32;;;0.90;;
47958;SDS011;33718;50.910;-1.514;2024-02-26T07:26:46;5.35;;;0.95;;
47958;SDS011;33718;50.910;-1.514;2024-02-26T07:28:48;8.02;;;1.30;;
47958;SDS011;33718;50.910;-1.514;2024-02-26T07:30:50;6.85;;;1.05;;
47958;SDS011;33718;50.910;-1.514;2024-02-26T07:32:53;4.65;;;2.05;;
47958;SDS011;33718;50.910;-1.514;2024-02-26T07:34:55;7.45;;;0.85;;
47958;SDS011;33718;50.910;-1.514;2024-02-26T07:36:56;3.53;;;0.90;;
47958;SDS011;33718;50.910;-1.514;2024-02-26T07:38:58;5.68;;;0.82;;
47958;SDS011;33718;50.910;-1.514;2024-02-26T07:41:01;6.20;;;1.52;;
47958;SDS011;33718;50.910;-1.514;2024-02-26T07:43:04;7.80;;;0.98;;
47958;SDS011;33718;50.910;-1.514;2024-02-26T07:45:06;4.07;;;0.60;;
47958;SDS011;33718;50.910;-1.514;2024-02-26T07:47:08;10.23;;;0.60;;
47958;SDS011;33718;50.910;-1.514;2024-02-26T07:49:10;7.75;;;0.98;;
47958;SDS011;33718;50.910;-1.514;2024-02-26T07:51:14;3.38;;;1.25;;
47958;SDS011;33718;50.910;-1.514;2024-02-26T07:53:34;1.88;;;0.63;;
47958;SDS011;33718;50.910;-1.514;2024-02-26T07:55:36;2.85;;;0.80;;
47958;SDS011;33718;50.910;-1.514;2024-02-26T07:57:40;3.30;;;0.45;;
47958;SDS011;33718;50.910;-1.514;2024-02-26T07:59:42;4.15;;;0.52;;
47958;SDS011;33718;50.910;-1.514;2024-02-26T08:01:50;4.18;;;0.75;;
47958;SDS011;33718;50.910;-1.514;2024-02-26T08:03:59;3.20;;;0.55;;
47958;SDS011;33718;50.910;-1.514;2024-02-26T08:06:05;7.78;;;0.80;;
47958;SDS011;33718;50.910;-1.514;2024-02-26T08:08:07;4.38;;;0.60;;
47958;SDS011;33718;50.910;-1.514;2024-02-26T08:10:29;3.22;;;0.65;;
47958;SDS011;33718;50.910;-1.514;2024-02-26T08:12:34;2.22;;;0.70;;
47958;SDS011;33718;50.910;-1.514;2024-02-26T08:14:37;4.30;;;1.17;;
47958;SDS011;33718;50.910;-1.514;2024-02-26T08:16:39;5.40;;;0.85;;
47958;SDS011;33718;50.910;-1.514;2024-02-26T08:18:42;1.52;;;0.45;;
47958;SDS011;33718;50.910;-1.514;2024-02-26T08:20:45;1.50;;;0.93;;
47958;SDS011;33718;50.910;-1.514;2024-02-26T08:22:48;3.22;;;0.73;;
47958;SDS011;33718;50.910;-1.514;2024-02-26T08:24:50;3.25;;;0.82;;
47958;SDS011;33718;50.910;-1.514;2024-02-26T08:27:11;5.07;;;1.00;;
47958;SDS011;33718;50.910;-1.514;2024-02-26T08:29:13;6.32;;;1.83;;
47958;SDS011;33718;50.910;-1.514;2024-02-26T08:31:16;4.63;;;0.88;;
47958;SDS011;33718;50.910;-1.514;2024-02-26T08:33:37;9.77;;;0.98;;
47958;SDS011;33718;50.910;-1.514;2024-02-26T08:35:40;3.35;;;1.10;;
47958;SDS011;33718;50.910;-1.514;2024-02-26T08:37:46;4.13;;;0.70;;
47958;SDS011;33718;50.910;-1.514;2024-02-26T08:39:49;6.00;;;1.20;;
47958;SDS011;33718;50.910;-1.514;2024-02-26T08:41:51;4.95;;;0.88;;
47958;SDS011;33718;50.910;-1.514;2024-02-26T08:43:54;3.20;;;0.60;;
47958;SDS011;33718;50.910;-1.514;2024-02-26T08:45:57;4.80;;;0.82;;
47958;SDS011;33718;50.910;-1.514;2024-02-26T08:48:00;2.33;;;0.68;;
47958;SDS011;33718;50.910;-1.514;2024-02-26T08:50:02;8.10;;;0.63;;
47958;SDS011;33718;50.910;-1.514;2024-02-26T08:52:05;3.35;;;1.05;;
47958;SDS011;33718;50.910;-1.514;2024-02-26T08:54:06;4.82;;;0.60;;
47958;SDS011;33718;50.910;-1.514;2024-02-26T08:56:08;2.10;;;0.70;;
47958;SDS011;33718;50.910;-1.514;2024-02-26T08:58:28;5.93;;;0.55;;
47958;SDS011;33718;50.910;-1.514;2024-02-26T09:00:30;1.55;;;0.50;;
47958;SDS011;33718;50.910;-1.514;2024-02-26T09:02:32;6.88;;;0.77;;
47958;SDS011;33718;50.910;-1.514;2024-02-26T09:04:52;1.77;;;0.60;;
47958;SDS011;33718;50.910;-1.514;2024-02-26T09:06:56;4.38;;;0.70;;
47958;SDS011;33718;50.910;-1.514;2024-02-26T09:09:16;3.15;;;0.55;;
47958;SDS011;33718;50.910;-1.514;2024-02-26T09:11:18;6.95;;;1.13;;
47958;SDS011;33718;50.910;-1.514;2024-02-26T09:13:19;5.60;;;0.82;;
47958;SDS011;33718;50.910;-1.514;2024-02-26T09:15:40;2.83;;;0.80;;
47958;SDS011;33718;50.910;-1.514;2024-02-26T09:17:41;2.60;;;0.60;;
47958;SDS011;33718;50.910;-1.514;2024-02-26T09:19:43;4.70;;;0.50;;
47958;SDS011;33718;50.910;-1.514;2024-02-26T09:21:45;3.90;;;0.75;;
47958;SDS011;33718;50.910;-1.514;2024-02-26T09:24:06;2.15;;;0.47;;
47958;SDS011;33718;50.910;-1.514;2024-02-26T09:26:08;3.15;;;0.40;;
47958;SDS011;33718;50.910;-1.514;2024-02-26T09:28:10;1.83;;;0.35;;
47958;SDS011;33718;50.910;-1.514;2024-02-26T09:30:12;2.28;;;0.63;;
47958;SDS011;33718;50.910;-1.514;2024-02-26T09:32:32;0.60;;;0.30;;
47958;SDS011;33718;50.910;-1.514;2024-02-26T09:34:34;4.78;;;0.50;;
47958;SDS011;33718;50.910;-1.514;2024-02-26T09:36:36;3.78;;;0.68;;
47958;SDS011;33718;50.910;-1.514;2024-02-26T09:38:37;4.00;;;0.45;;
47958;SDS011;33718;50.910;-1.514;2024-02-26T09:40:56;2.63;;;0.35;;
47958;SDS011;33718;50.910;-1.514;2024-02-26T09:43:17;3.13;;;0.88;;
47958;SDS011;33718;50.910;-1.514;2024-02-26T09:45:39;0.73;;;0.63;;
47958;SDS011;33718;50.910;-1.514;2024-02-26T09:47:41;5.45;;;0.95;;
47958;SDS011;33718;50.910;-1.514;2024-02-26T09:49:46;5.55;;;0.75;;
47958;SDS011;33718;50.910;-1.514;2024-02-26T09:51:49;7.03;;;0.77;;
47958;SDS011;33718;50.910;-1.514;2024-02-26T09:53:51;2.75;;;0.60;;
47958;SDS011;33718;50.910;-1.514;2024-02-26T09:56:12;2.90;;;0.55;;
47958;SDS011;33718;50.910;-1.514;2024-02-26T09:58:14;2.25;;;0.43;;
47958;SDS011;33718;50.910;-1.514;2024-02-26T10:00:21;9.23;;;1.10;;
47958;SDS011;33718;50.910;-1.514;2024-02-26T10:02:23;2.63;;;0.50;;
47958;SDS011;33718;50.910;-1.514;2024-02-26T10:04:25;2.95;;;0.95;;
47958;SDS011;33718;50.910;-1.514;2024-02-26T10:06:26;2.45;;;0.55;;
47958;SDS011;33718;50.910;-1.514;2024-02-26T10:08:29;6.53;;;0.30;;
47958;SDS011;33718;50.910;-1.514;2024-02-26T10:10:31;4.15;;;0.73;;
47958;SDS011;33718;50.910;-1.514;2024-02-26T10:12:34;5.72;;;0.70;;
47958;SDS011;33718;50.910;-1.514;2024-02-26T10:14:35;5.57;;;0.50;;
47958;SDS011;33718;50.910;-1.514;2024-02-26T10:16:38;4.40;;;0.52;;
47958;SDS011;33718;50.910;-1.514;2024-02-26T10:18:46;3.22;;;0.88;;
47958;SDS011;33718;50.910;-1.514;2024-02-26T10:21:04;3.17;;;0.55;;
47958;SDS011;33718;50.910;-1.514;2024-02-26T10:23:27;4.32;;;0.50;;
47958;SDS011;33718;50.910;-1.514;2024-02-26T10:25:29;4.88;;;0.70;;
47958;SDS011;33718;50.910;-1.514;2024-02-26T10:27:33;4.18;;;0.63;;
47958;SDS011;33718;50.910;-1.514;2024-02-26T10:29:35;6.95;;;0.52;;
47958;SDS011;33718;50.910;-1.514;2024-02-26T10:31:36;3.13;;;0.63;;
47958;SDS011;33718;50.910;-1.514;2024-02-26T10:33:38;4.15;;;0.57;;
47958;SDS011;33718;50.910;-1.514;2024-02-26T10:35:47;4.57;;;1.85;;
47958;SDS011;33718;50.910;-1.514;2024-02-26T10:37:49;3.75;;;0.85;;
47958;SDS011;33718;50.910;-1.514;2024-02-26T10:39:51;3.58;;;0.57;;
47958;SDS011;33718;50.910;-1.514;2024-02-26T10:42:12;3.38;;;0.47;;
47958;SDS011;33718;50.910;-1.514;2024-02-26T10:44:14;1.23;;;0.30;;
47958;SDS011;33718;50.910;-1.514;2024-02-26T10:46:19;4.80;;;0.38;;
47958;SDS011;33718;50.910;-1.514;2024-02-26T10:48:21;2.38;;;0.50;;
47958;SDS011;33718;50.910;-1.514;2024-02-26T10:50:42;1.77;;;1.02;;
47958;SDS011;33718;50.910;-1.514;2024-02-26T10:52:44;3.20;;;0.47;;
47958;SDS011;33718;50.910;-1.514;2024-02-26T10:54:47;2.75;;;0.30;;
47958;SDS011;33718;50.910;-1.514;2024-02-26T10:56:51;2.08;;;0.30;;
47958;SDS011;33718;50.910;-1.514;2024-02-26T10:58:57;3.38;;;0.43;;
47958;SDS011;33718;50.910;-1.514;2024-02-26T11:00:58;5.60;;;0.50;;
47958;SDS011;33718;50.910;-1.514;2024-02-26T11:03:01;2.60;;;0.45;;
47958;SDS011;33718;50.910;-1.514;2024-02-26T11:05:05;2.20;;;0.73;;
47958;SDS011;33718;50.910;-1.514;2024-02-26T11:07:08;1.60;;;0.43;;
47958;SDS011;33718;50.910;-1.514;2024-02-26T11:09:12;1.85;;;0.28;;
47958;SDS011;33718;50.910;-1.514;2024-02-26T11:11:15;6.15;;;0.50;;
47958;SDS011;33718;50.910;-1.514;2024-02-26T11:13:18;1.52;;;0.45;;
47958;SDS011;33718;50.910;-1.514;2024-02-26T11:15:23;4.32;;;0.43;;
47958;SDS011;33718;50.910;-1.514;2024-02-26T11:17:45;4.60;;;0.70;;
47958;SDS011;33718;50.910;-1.514;2024-02-26T11:20:09;7.65;;;0.52;;
47958;SDS011;33718;50.910;-1.514;2024-02-26T11:22:15;0.82;;;0.35;;
47958;SDS011;33718;50.910;-1.514;2024-02-26T11:24:26;4.20;;;0.55;;
47958;SDS011;33718;50.910;-1.514;2024-02-26T11:26:29;3.88;;;0.43;;
47958;SDS011;33718;50.910;-1.514;2024-02-26T11:28:33;3.80;;;0.80;;
47958;SDS011;33718;50.910;-1.514;2024-02-26T11:30:55;4.80;;;0.60;;
47958;SDS011;33718;50.910;-1.514;2024-02-26T11:33:02;2.00;;;0.30;;
47958;SDS011;33718;50.910;-1.514;2024-02-26T11:35:07;3.70;;;0.40;;
47958;SDS011;33718;50.910;-1.514;2024-02-26T11:37:14;1.85;;;0.40;;
47958;SDS011;33718;50.910;-1.514;2024-02-26T11:39:17;6.88;;;0.77;;
47958;SDS011;33718;50.910;-1.514;2024-02-26T11:41:20;3.13;;;0.47;;
47958;SDS011;33718;50.910;-1.514;2024-02-26T11:43:23;4.28;;;0.98;;
47958;SDS011;33718;50.910;-1.514;2024-02-26T11:46:05;5.25;;;1.02;;
47958;SDS011;33718;50.910;-1.514;2024-02-26T11:48:28;3.10;;;0.60;;
47958;SDS011;33718;50.910;-1.514;2024-02-26T11:50:41;3.08;;;0.30;;
47958;SDS011;33718;50.910;-1.514;2024-02-26T11:53:19;1.85;;;0.50;;
47958;SDS011;33718;50.910;-1.514;2024-02-26T11:55:07;3.50;;;0.63;;
47958;SDS011;33718;50.910;-1.514;2024-02-26T11:59:44;8.95;;;0.70;;
47958;SDS011;33718;50.910;-1.514;2024-02-26T12:01:46;2.28;;;0.30;;
47958;SDS011;33718;50.910;-1.514;2024-02-26T12:03:56;3.90;;;0.45;;
47958;SDS011;33718;50.910;-1.514;2024-02-26T12:05:58;3.05;;;0.95;;
47958;SDS011;33718;50.910;-1.514;2024-02-26T12:08:00;3.13;;;0.70;;
47958;SDS011;33718;50.910;-1.514;2024-02-26T12:10:15;2.15;;;0.52;;
47958;SDS011;33718;50.910;-1.514;2024-02-26T12:12:17;2.28;;;0.50;;
47958;SDS011;33718;50.910;-1.514;2024-02-26T12:14:24;4.22;;;1.25;;
47958;SDS011;33718;50.910;-1.514;2024-02-26T12:16:38;5.50;;;0.40;;
47958;SDS011;33718;50.910;-1.514;2024-02-26T12:18:40;3.03;;;1.42;;
47958;SDS011;33718;50.910;-1.514;2024-02-26T12:21:02;5.82;;;0.50;;
47958;SDS011;33718;50.910;-1.514;2024-02-26T12:23:04;2.72;;;0.30;;
47958;SDS011;33718;50.910;-1.514;2024-02-26T12:25:08;4.88;;;0.40;;